createdAt,value
2022-07-25T00:01:55.265Z,27.08
2022-07-25T00:04:24.605Z,27.07
2022-07-25T00:06:52.062Z,27.05
2022-07-25T00:09:19.539Z,27.07
2022-07-25T00:11:48.407Z,27.06
2022-07-25T00:14:15.825Z,27.07
2022-07-25T00:16:43.251Z,27.10
2022-07-25T00:19:11.477Z,27.07
2022-07-25T00:21:38.876Z,27.16
2022-07-25T00:24:07.259Z,27.14
2022-07-25T00:26:39.783Z,27.07
2022-07-25T00:29:09.273Z,27.10
2022-07-25T00:31:36.856Z,27.10
2022-07-25T00:34:04.688Z,27.11
2022-07-25T00:36:32.322Z,27.15
2022-07-25T00:39:18.401Z,27.15
2022-07-25T00:41:45.801Z,27.14
2022-07-25T00:44:24.507Z,27.15
2022-07-25T00:46:52.707Z,27.15
2022-07-25T00:49:20.141Z,27.12
2022-07-25T00:51:47.983Z,27.17
2022-07-25T00:54:15.825Z,27.19
2022-07-25T00:56:44.269Z,27.62
2022-07-25T00:59:11.668Z,27.41
2022-07-25T01:01:40.784Z,27.28
2022-07-25T01:04:08.739Z,27.26
2022-07-25T01:06:36.390Z,27.24
2022-07-25T01:09:04.624Z,27.33
2022-07-25T01:11:33.768Z,27.46
2022-07-25T01:14:01.512Z,27.78
2022-07-25T01:16:29.041Z,27.87
2022-07-25T01:18:57.982Z,27.69
2022-07-25T01:21:27.657Z,27.60
2022-07-25T01:23:55.267Z,27.49
2022-07-25T01:26:22.688Z,27.47
2022-07-25T01:28:50.083Z,27.48
2022-07-25T01:31:17.568Z,27.50
2022-07-25T01:33:45.047Z,27.62
2022-07-25T01:36:12.695Z,27.64
2022-07-25T01:38:41.533Z,27.66
2022-07-25T01:41:08.955Z,27.73
2022-07-25T01:43:36.336Z,27.75
2022-07-25T01:46:04.068Z,27.72
2022-07-25T01:48:31.545Z,27.66
2022-07-25T01:50:58.965Z,27.71
2022-07-25T01:53:27.216Z,27.70
2022-07-25T01:55:56.573Z,27.70
2022-07-25T01:58:24.877Z,27.70
2022-07-25T02:00:52.808Z,27.71
2022-07-25T02:03:20.227Z,27.73
2022-07-25T02:05:47.652Z,27.73
2022-07-25T02:08:14.989Z,27.71
2022-07-25T02:10:42.598Z,27.76
2022-07-25T02:13:11.443Z,27.84
2022-07-25T02:15:39.018Z,27.83
2022-07-25T02:18:06.576Z,27.99
2022-07-25T02:20:33.981Z,28.02
2022-07-25T02:23:01.366Z,28.05
2022-07-25T02:25:28.783Z,28.04
2022-07-25T02:27:56.264Z,28.11
2022-07-25T02:30:25.202Z,28.03
2022-07-25T02:32:52.948Z,28.06
2022-07-25T02:35:20.595Z,28.05
2022-07-25T02:37:48.258Z,28.16
2022-07-25T02:40:15.681Z,28.05
2022-07-25T02:42:43.146Z,28.18
2022-07-25T02:45:10.972Z,28.20
2022-07-25T02:47:39.909Z,28.19
2022-07-25T02:50:08.132Z,28.16
2022-07-25T02:52:35.859Z,28.10
2022-07-25T02:55:09.215Z,28.14
2022-07-25T02:57:37.220Z,28.08
2022-07-25T03:00:05.819Z,28.12
2022-07-25T03:02:33.267Z,28.19
2022-07-25T03:05:02.353Z,28.33
2022-07-25T03:07:29.793Z,28.33
2022-07-25T03:09:57.186Z,28.33
2022-07-25T03:12:24.581Z,28.33
2022-07-25T03:14:51.968Z,28.38
2022-07-25T03:17:19.371Z,28.28
2022-07-25T03:19:46.758Z,28.04
2022-07-25T03:22:15.596Z,28.02
2022-07-25T03:24:43.044Z,28.18
2022-07-25T03:27:10.424Z,28.22
2022-07-25T03:29:37.933Z,28.35
2022-07-25T03:32:06.512Z,28.36
2022-07-25T03:34:34.519Z,28.41
2022-07-25T03:37:01.960Z,28.53
2022-07-25T03:39:30.806Z,28.46
2022-07-25T03:41:58.408Z,28.44
2022-07-25T03:44:26.201Z,28.41
2022-07-25T03:46:53.564Z,28.49
2022-07-25T03:49:21.419Z,28.46
2022-07-25T03:51:49.335Z,28.54
2022-07-25T03:54:16.692Z,28.52
2022-07-25T03:56:48.876Z,28.38
2022-07-25T03:59:19.322Z,28.34
2022-07-25T04:01:48.804Z,28.43
2022-07-25T04:04:16.206Z,28.51
2022-07-25T04:06:43.976Z,28.57
2022-07-25T04:09:12.046Z,28.39
2022-07-25T04:11:39.664Z,28.42
2022-07-25T04:14:08.757Z,28.51
2022-07-25T04:16:36.901Z,28.59
2022-07-25T04:19:04.877Z,28.44
2022-07-25T04:21:33.898Z,28.24
2022-07-25T04:24:01.371Z,28.37
2022-07-25T04:26:28.737Z,28.22
2022-07-25T04:28:56.117Z,28.20
2022-07-25T04:31:25.034Z,28.20
2022-07-25T04:33:52.450Z,28.43
2022-07-25T04:36:19.886Z,28.56
2022-07-25T04:38:47.233Z,28.57
2022-07-25T04:41:14.622Z,28.43
2022-07-25T04:43:47.937Z,28.42
2022-07-25T04:46:18.933Z,28.22
2022-07-25T04:48:48.717Z,28.26
2022-07-25T04:51:16.491Z,28.29
2022-07-25T04:53:44.136Z,28.30
2022-07-25T04:56:11.580Z,28.27
2022-07-25T04:58:38.967Z,28.34
2022-07-25T05:01:06.703Z,28.63
2022-07-25T05:03:34.157Z,28.62
2022-07-25T05:06:03.103Z,28.56
2022-07-25T05:08:30.551Z,28.50
2022-07-25T05:10:57.920Z,28.49
2022-07-25T05:13:25.324Z,28.48
2022-07-25T05:15:52.742Z,28.37
2022-07-25T05:18:20.199Z,28.49
2022-07-25T05:20:47.784Z,28.64
2022-07-25T05:23:16.605Z,28.52
2022-07-25T05:25:44.097Z,28.67
2022-07-25T05:28:11.589Z,28.86
2022-07-25T05:30:40.041Z,28.86
2022-07-25T05:33:07.586Z,28.66
2022-07-25T05:35:34.953Z,28.71
2022-07-25T05:38:02.866Z,28.80
2022-07-25T05:40:31.677Z,28.87
2022-07-25T05:43:02.882Z,28.69
2022-07-25T05:45:31.405Z,28.62
2022-07-25T05:47:58.836Z,28.57
2022-07-25T05:50:26.263Z,28.42
2022-07-25T05:52:53.684Z,28.61
2022-07-25T05:55:21.065Z,29.06
2022-07-25T05:57:49.909Z,28.67
2022-07-25T06:00:17.684Z,29.16
2022-07-25T06:02:45.205Z,28.70
2022-07-25T06:05:12.654Z,29.00
2022-07-25T06:07:40.343Z,28.99
2022-07-25T06:10:08.586Z,28.65
2022-07-25T06:12:36.743Z,28.72
2022-07-25T06:15:07.020Z,28.86
2022-07-25T06:17:39.939Z,28.74
2022-07-25T06:20:08.497Z,28.72
2022-07-25T06:22:35.905Z,28.92
2022-07-25T06:25:03.809Z,28.80
2022-07-25T06:27:31.192Z,28.86
2022-07-25T06:29:58.652Z,28.73
2022-07-25T06:32:27.503Z,28.78
2022-07-25T06:34:54.890Z,28.78
2022-07-25T06:37:22.264Z,28.88
2022-07-25T06:39:49.680Z,28.80
2022-07-25T06:42:17.126Z,28.93
2022-07-25T06:44:44.564Z,29.15
2022-07-25T06:47:12.048Z,29.14
2022-07-25T06:49:41.863Z,29.08
2022-07-25T06:52:09.640Z,29.04
2022-07-25T06:54:37.105Z,29.03
2022-07-25T06:57:04.895Z,29.02
2022-07-25T06:59:32.312Z,28.86
2022-07-25T07:01:59.748Z,28.92
2022-07-25T07:04:27.221Z,29.04
2022-07-25T07:06:56.069Z,29.36
2022-07-25T07:09:23.478Z,29.16
2022-07-25T07:11:50.864Z,29.21
2022-07-25T07:14:18.227Z,29.26
2022-07-25T07:16:45.674Z,29.27
2022-07-25T07:19:15.370Z,29.20
2022-07-25T07:21:43.119Z,29.32
2022-07-25T07:24:24.116Z,29.64
2022-07-25T07:26:52.767Z,29.65
2022-07-25T07:29:20.978Z,29.19
2022-07-25T07:31:48.554Z,29.14
2022-07-25T07:34:16.405Z,29.51
2022-07-25T07:36:44.128Z,29.38
2022-07-25T07:39:13.454Z,29.10
2022-07-25T07:41:40.830Z,29.49
2022-07-25T07:44:08.256Z,29.56
2022-07-25T07:46:35.756Z,29.57
2022-07-25T07:49:03.485Z,29.53
2022-07-25T07:51:31.254Z,29.44
2022-07-25T07:53:58.616Z,29.44
2022-07-25T07:56:27.520Z,29.49
2022-07-25T07:58:54.894Z,29.39
2022-07-25T08:01:22.369Z,29.67
2022-07-25T08:03:49.763Z,29.39
2022-07-25T08:06:17.442Z,29.41
2022-07-25T08:08:44.835Z,29.75
2022-07-25T08:11:12.265Z,29.58
2022-07-25T08:13:41.142Z,29.66
2022-07-25T08:16:08.803Z,29.33
2022-07-25T08:18:36.268Z,29.99
2022-07-25T08:21:04.122Z,29.73
2022-07-25T08:23:31.663Z,29.57
2022-07-25T08:25:59.080Z,30.07
2022-07-25T08:28:26.704Z,30.06
2022-07-25T08:30:55.590Z,30.10
2022-07-25T08:33:22.985Z,29.96
2022-07-25T08:35:51.917Z,29.75
2022-07-25T08:38:19.624Z,29.74
2022-07-25T08:40:47.294Z,29.81
2022-07-25T08:43:15.806Z,29.66
2022-07-25T08:45:45.687Z,29.70
2022-07-25T08:48:16.937Z,29.70
2022-07-25T08:50:46.070Z,29.83
2022-07-25T08:53:32.562Z,29.70
2022-07-25T08:56:05.382Z,29.71
2022-07-25T08:58:37.997Z,29.89
2022-07-25T09:01:05.573Z,29.59
2022-07-25T09:03:34.890Z,29.57
2022-07-25T09:06:02.307Z,29.65
2022-07-25T09:08:29.688Z,29.68
2022-07-25T09:10:57.050Z,29.71
2022-07-25T09:13:24.468Z,30.12
2022-07-25T09:15:53.097Z,30.00
2022-07-25T09:18:24.457Z,29.90
2022-07-25T09:20:56.282Z,30.18
2022-07-25T09:23:31.060Z,30.21
2022-07-25T09:26:05.615Z,30.31
2022-07-25T09:28:39.903Z,30.21
2022-07-25T09:31:07.301Z,30.20
2022-07-25T09:33:34.804Z,30.27
2022-07-25T09:36:11.290Z,30.09
2022-07-25T09:38:38.784Z,30.13
2022-07-25T09:41:06.354Z,29.97
2022-07-25T09:43:37.846Z,30.43
2022-07-25T09:46:05.974Z,30.67
2022-07-25T09:48:33.916Z,30.37
2022-07-25T09:51:01.503Z,30.24
2022-07-25T09:53:30.410Z,30.15
2022-07-25T09:55:58.156Z,29.76
2022-07-25T09:58:25.721Z,30.10
2022-07-25T10:00:57.659Z,30.22
2022-07-25T10:03:37.377Z,30.13
2022-07-25T10:06:15.010Z,30.21
2022-07-25T10:08:44.287Z,30.22
2022-07-25T10:11:23.044Z,30.77
2022-07-25T10:13:51.168Z,30.85
2022-07-25T10:16:22.644Z,31.04
2022-07-25T10:18:51.806Z,31.13
2022-07-25T10:21:28.342Z,31.09
2022-07-25T10:24:03.135Z,30.73
2022-07-25T10:26:31.147Z,30.62
2022-07-25T10:28:59.179Z,30.76
2022-07-25T10:31:33.955Z,30.86
2022-07-25T10:34:03.938Z,30.75
2022-07-25T10:36:42.891Z,30.88
2022-07-25T10:39:13.938Z,30.86
2022-07-25T10:41:43.657Z,30.73
2022-07-25T10:44:13.296Z,30.70
2022-07-25T10:46:41.727Z,30.92
2022-07-25T10:49:18.122Z,31.13
2022-07-25T10:51:55.714Z,30.92
2022-07-25T10:54:24.807Z,31.08
2022-07-25T10:56:54.989Z,31.09
2022-07-25T10:59:35.718Z,31.06
2022-07-25T11:02:04.661Z,31.26
2022-07-25T11:04:32.320Z,31.03
2022-07-25T11:07:08.499Z,31.13
2022-07-25T11:09:37.798Z,31.23
2022-07-25T11:12:06.210Z,31.44
2022-07-25T11:14:35.896Z,31.47
2022-07-25T11:17:18.007Z,31.22
2022-07-25T11:19:54.637Z,31.04
2022-07-25T11:22:22.227Z,30.99
2022-07-25T11:24:51.526Z,31.00
2022-07-25T11:27:24.294Z,31.02
2022-07-25T11:29:51.813Z,31.08
2022-07-25T11:32:22.215Z,31.11
2022-07-25T11:34:53.557Z,31.47
2022-07-25T11:37:21.956Z,31.50
2022-07-25T11:39:51.513Z,31.49
2022-07-25T11:42:19.412Z,31.46
2022-07-25T11:44:49.143Z,31.18
2022-07-25T11:47:24.939Z,31.41
2022-07-25T11:49:53.916Z,31.25
2022-07-25T11:52:22.918Z,31.26
2022-07-25T11:54:53.655Z,31.61
2022-07-25T11:57:22.444Z,31.60
2022-07-25T11:59:49.968Z,31.39
2022-07-25T12:02:28.651Z,31.64
2022-07-25T12:04:58.029Z,31.24
2022-07-25T12:07:39.785Z,31.21
2022-07-25T12:10:11.684Z,31.19
2022-07-25T12:12:46.664Z,31.46
2022-07-25T12:15:15.106Z,31.17
2022-07-25T12:17:42.917Z,31.06
2022-07-25T12:20:18.658Z,30.98
2022-07-25T12:22:47.818Z,31.11
2022-07-25T12:25:16.895Z,31.04
2022-07-25T12:27:44.770Z,30.97
2022-07-25T12:30:13.256Z,30.89
2022-07-25T12:32:40.860Z,30.88
2022-07-25T12:35:11.382Z,31.14
2022-07-25T12:37:38.891Z,31.11
2022-07-25T12:40:07.755Z,30.89
2022-07-25T12:42:36.636Z,30.77
2022-07-25T12:45:04.757Z,31.09
2022-07-25T12:47:32.249Z,31.62
2022-07-25T12:49:59.642Z,31.35
2022-07-25T12:52:27.107Z,31.41
2022-07-25T12:54:54.547Z,31.26
2022-07-25T12:57:21.972Z,31.67
2022-07-25T12:59:50.906Z,31.70
2022-07-25T13:02:18.494Z,31.78
2022-07-25T13:04:46.054Z,31.36
2022-07-25T13:07:13.594Z,31.23
2022-07-25T13:09:41.040Z,31.15
2022-07-25T13:12:10.388Z,31.20
2022-07-25T13:14:39.758Z,31.18
2022-07-25T13:17:08.632Z,31.32
2022-07-25T13:19:36.319Z,31.34
2022-07-25T13:22:03.759Z,31.36
2022-07-25T13:24:31.160Z,31.27
2022-07-25T13:26:58.512Z,31.35
2022-07-25T13:29:25.913Z,31.20
2022-07-25T13:31:53.294Z,31.43
2022-07-25T13:34:22.190Z,31.49
2022-07-25T13:36:49.677Z,31.25
2022-07-25T13:39:17.127Z,31.13
2022-07-25T13:41:44.519Z,31.03
2022-07-25T13:44:11.933Z,31.05
2022-07-25T13:46:39.324Z,30.89
2022-07-25T13:49:07.069Z,30.91
2022-07-25T13:51:36.333Z,30.97
2022-07-25T13:54:03.922Z,30.87
2022-07-25T13:56:32.472Z,31.04
2022-07-25T13:58:59.978Z,31.15
2022-07-25T14:01:27.507Z,31.08
2022-07-25T14:03:55.126Z,30.98
2022-07-25T14:06:22.809Z,30.98
2022-07-25T14:08:51.609Z,30.89
2022-07-25T14:11:19.004Z,30.94
2022-07-25T14:13:46.686Z,30.98
2022-07-25T14:16:14.301Z,30.89
2022-07-25T14:18:41.724Z,30.92
2022-07-25T14:21:09.189Z,31.10
2022-07-25T14:23:36.576Z,30.93
2022-07-25T14:26:05.629Z,30.94
2022-07-25T14:28:33.094Z,31.15
2022-07-25T14:31:00.482Z,31.23
2022-07-25T14:33:27.924Z,31.34
2022-07-25T14:35:55.403Z,31.33
2022-07-25T14:38:22.888Z,31.50
2022-07-25T14:40:50.304Z,31.51
2022-07-25T14:43:19.138Z,31.56
2022-07-25T14:45:46.564Z,31.55
2022-07-25T14:48:14.005Z,31.65
2022-07-25T14:50:41.426Z,31.50
2022-07-25T14:53:08.949Z,31.25
2022-07-25T14:55:37.032Z,31.15
2022-07-25T14:58:04.728Z,31.11
2022-07-25T15:00:33.710Z,30.99
2022-07-25T15:03:01.164Z,31.05
2022-07-25T15:05:28.622Z,31.00
2022-07-25T15:07:56.028Z,30.99
2022-07-25T15:10:23.600Z,30.98
2022-07-25T15:13:02.307Z,31.01
2022-07-25T15:15:39.815Z,30.99
2022-07-25T15:18:11.937Z,31.00
2022-07-25T15:20:41.477Z,31.03
2022-07-25T15:23:09.010Z,30.97
2022-07-25T15:26:04.968Z,31.00
2022-07-25T15:28:24.138Z,31.05
2022-07-25T15:30:52.983Z,30.89
2022-07-25T15:33:20.765Z,30.92
2022-07-25T15:35:48.704Z,31.00
2022-07-25T15:38:17.199Z,30.95
2022-07-25T15:40:45.005Z,30.97
2022-07-25T15:43:12.741Z,30.91
2022-07-25T15:45:41.601Z,30.94
2022-07-25T15:48:12.385Z,30.96
2022-07-25T15:50:41.983Z,30.97
2022-07-25T15:53:09.969Z,30.94
2022-07-25T15:55:38.542Z,30.98
2022-07-25T15:58:06.667Z,30.91
2022-07-25T16:00:34.436Z,30.84
2022-07-25T16:03:02.304Z,30.86
2022-07-25T16:05:31.318Z,30.84
2022-07-25T16:07:59.883Z,30.82
2022-07-25T16:10:27.918Z,30.83
2022-07-25T16:12:56.611Z,30.81
2022-07-25T16:15:24.254Z,30.79
2022-07-25T16:17:51.856Z,30.75
2022-07-25T16:20:19.954Z,30.73
2022-07-25T16:22:49.097Z,30.69
2022-07-25T16:25:16.556Z,30.66
2022-07-25T16:27:44.011Z,30.63
2022-07-25T16:30:13.888Z,30.68
2022-07-25T16:32:41.287Z,30.64
2022-07-25T16:35:08.980Z,30.59
2022-07-25T16:37:36.502Z,30.57
2022-07-25T16:40:06.508Z,30.63
2022-07-25T16:42:34.080Z,30.58
2022-07-25T16:45:01.462Z,30.55
2022-07-25T16:47:28.881Z,30.47
2022-07-25T16:49:56.480Z,30.50
2022-07-25T16:52:24.070Z,30.44
2022-07-25T16:54:51.505Z,30.41
2022-07-25T16:57:23.840Z,30.37
2022-07-25T16:59:52.801Z,30.37
2022-07-25T17:02:23.748Z,30.38
2022-07-25T17:04:53.903Z,30.35
2022-07-25T17:07:21.505Z,30.33
2022-07-25T17:09:48.900Z,30.30
2022-07-25T17:12:16.445Z,30.30
2022-07-25T17:14:45.325Z,30.28
2022-07-25T17:17:12.871Z,30.24
2022-07-25T17:19:40.322Z,30.22
2022-07-25T17:22:09.254Z,30.27
2022-07-25T17:24:38.540Z,30.30
2022-07-25T17:27:06.848Z,30.28
2022-07-25T17:29:34.641Z,30.30
2022-07-25T17:32:04.359Z,30.30
2022-07-25T17:34:31.793Z,30.27
2022-07-25T17:36:59.848Z,30.27
2022-07-25T17:39:27.433Z,30.25
2022-07-25T17:41:54.900Z,30.22
2022-07-25T17:44:22.375Z,30.23
2022-07-25T17:46:51.727Z,30.21
2022-07-25T17:49:21.263Z,30.18
2022-07-25T17:51:48.871Z,30.20
2022-07-25T17:54:16.366Z,30.18
2022-07-25T17:56:43.912Z,30.18
2022-07-25T17:59:11.635Z,30.16
2022-07-25T18:01:39.485Z,30.15
2022-07-25T18:04:07.263Z,30.16
2022-07-25T18:06:36.469Z,30.13
2022-07-25T18:09:04.106Z,30.14
2022-07-25T18:11:31.859Z,30.16
2022-07-25T18:13:59.202Z,30.12
2022-07-25T18:16:26.750Z,30.03
2022-07-25T18:18:54.598Z,30.05
2022-07-25T18:21:22.120Z,30.02
2022-07-25T18:23:51.454Z,30.03
2022-07-25T18:26:19.204Z,30.00
2022-07-25T18:28:46.931Z,29.97
2022-07-25T18:31:14.540Z,29.96
2022-07-25T18:33:42.272Z,29.97
2022-07-25T18:36:09.990Z,29.99
2022-07-25T18:38:37.451Z,30.02
2022-07-25T18:41:28.174Z,30.07
2022-07-25T18:43:54.128Z,30.15
2022-07-25T18:46:21.928Z,30.49
2022-07-25T18:48:49.408Z,30.46
2022-07-25T18:51:16.917Z,30.31
2022-07-25T18:53:47.988Z,30.19
2022-07-25T18:56:17.656Z,30.18
2022-07-25T18:58:45.657Z,30.16
2022-07-25T19:01:13.381Z,30.20
2022-07-25T19:03:40.951Z,30.16
2022-07-25T19:06:09.005Z,30.14
2022-07-25T19:08:36.694Z,30.10
2022-07-25T19:11:04.570Z,30.08
2022-07-25T19:13:48.912Z,30.07
2022-07-25T19:16:17.845Z,30.08
2022-07-25T19:18:45.471Z,30.10
2022-07-25T19:21:12.923Z,30.09
2022-07-25T19:23:40.341Z,29.99
2022-07-25T19:26:07.830Z,30.04
2022-07-25T19:28:37.122Z,30.04
2022-07-25T19:31:04.750Z,30.03
2022-07-25T19:33:36.141Z,30.04
2022-07-25T19:36:03.941Z,30.08
2022-07-25T19:38:31.585Z,30.07
2022-07-25T19:40:59.162Z,30.06
2022-07-25T19:43:26.840Z,30.02
2022-07-25T19:45:55.827Z,29.94
2022-07-25T19:48:23.255Z,29.96
2022-07-25T19:50:51.030Z,29.90
2022-07-25T19:53:18.451Z,29.88
2022-07-25T19:55:45.836Z,29.88
2022-07-25T19:58:13.244Z,29.82
2022-07-25T20:00:40.846Z,29.75
2022-07-25T20:03:09.727Z,29.70
2022-07-25T20:05:37.189Z,29.71
2022-07-25T20:08:05.068Z,29.74
2022-07-25T20:10:32.577Z,29.70
2022-07-25T20:13:01.558Z,29.73
2022-07-25T20:15:29.276Z,29.62
2022-07-25T20:17:56.766Z,29.56
2022-07-25T20:20:26.404Z,29.53
2022-07-25T20:22:54.316Z,29.59
2022-07-25T20:25:21.842Z,29.59
2022-07-25T20:27:49.256Z,29.58
2022-07-25T20:30:17.385Z,29.55
2022-07-25T20:32:44.875Z,29.53
2022-07-25T20:35:12.387Z,29.52
2022-07-25T20:37:41.220Z,29.44
2022-07-25T20:40:10.175Z,29.37
2022-07-25T20:42:38.367Z,29.41
2022-07-25T20:45:07.003Z,29.38
2022-07-25T20:47:34.460Z,29.34
2022-07-25T20:50:02.007Z,29.37
2022-07-25T20:52:29.477Z,29.31
2022-07-25T20:54:58.335Z,29.27
2022-07-25T20:57:25.712Z,29.25
2022-07-25T20:59:53.131Z,29.21
2022-07-25T21:02:20.572Z,29.17
2022-07-25T21:04:48.071Z,29.23
2022-07-25T21:07:15.912Z,29.18
2022-07-25T21:09:43.340Z,29.20
2022-07-25T21:12:12.318Z,29.24
2022-07-25T21:14:39.808Z,29.30
2022-07-25T21:17:07.325Z,29.27
2022-07-25T21:19:34.777Z,29.30
2022-07-25T21:22:02.476Z,29.41
2022-07-25T21:24:29.981Z,29.28
2022-07-25T21:26:57.438Z,29.19
2022-07-25T21:29:26.285Z,29.09
2022-07-25T21:31:54.267Z,29.24
2022-07-25T21:34:21.873Z,29.41
2022-07-25T21:36:49.278Z,29.51
2022-07-25T21:39:16.973Z,29.56
2022-07-25T21:41:44.678Z,29.62
2022-07-25T21:44:14.089Z,29.61
2022-07-25T21:46:42.911Z,29.61
2022-07-25T21:49:10.785Z,29.63
2022-07-25T21:51:41.010Z,29.65
2022-07-25T21:54:08.759Z,29.68
2022-07-25T21:56:36.220Z,29.70
2022-07-25T21:59:03.823Z,29.67
2022-07-25T22:01:31.455Z,29.68
2022-07-25T22:04:00.364Z,29.67
2022-07-25T22:06:27.852Z,29.69
2022-07-25T22:08:55.562Z,29.69
2022-07-25T22:11:38.428Z,29.70
2022-07-25T22:14:10.432Z,29.69
2022-07-25T22:16:38.035Z,29.66
2022-07-25T22:19:07.221Z,29.65
2022-07-25T22:21:34.865Z,29.63
2022-07-25T22:24:02.260Z,29.65
2022-07-25T22:26:29.636Z,29.65
2022-07-25T22:28:57.074Z,29.66
2022-07-25T22:31:24.602Z,29.65
2022-07-25T22:33:52.048Z,29.62
2022-07-25T22:36:20.895Z,29.62
2022-07-25T22:38:48.270Z,29.68
2022-07-25T22:41:15.664Z,29.67
2022-07-25T22:43:58.453Z,29.71
2022-07-25T22:46:27.445Z,29.66
2022-07-25T22:48:54.934Z,29.88
2022-07-25T22:51:24.359Z,29.88
2022-07-25T22:53:52.095Z,29.71
2022-07-25T22:56:19.500Z,29.70
2022-07-25T22:58:49.148Z,29.67
2022-07-25T23:01:17.004Z,29.66
2022-07-25T23:03:44.503Z,29.66
2022-07-25T23:06:12.215Z,29.65
2022-07-25T23:08:41.091Z,29.60
2022-07-25T23:11:09.361Z,29.58
2022-07-25T23:13:37.123Z,29.61
2022-07-25T23:16:05.318Z,29.58
2022-07-25T23:18:37.710Z,29.60
2022-07-25T23:21:05.390Z,29.57
2022-07-25T23:23:33.020Z,29.59
2022-07-25T23:26:01.826Z,29.56
2022-07-25T23:28:29.231Z,29.56
2022-07-25T23:30:56.624Z,29.56
2022-07-25T23:33:25.767Z,29.56
2022-07-25T23:35:53.928Z,29.59
2022-07-25T23:38:21.480Z,29.56
2022-07-25T23:40:48.962Z,29.56
2022-07-25T23:43:55.630Z,29.53
2022-07-25T23:46:05.249Z,29.55
2022-07-25T23:48:34.431Z,29.54
2022-07-25T23:51:01.911Z,29.53
2022-07-25T23:53:29.332Z,29.53
2022-07-25T23:55:56.746Z,29.58
2022-07-25T23:58:25.573Z,29.55
